EPKS

Krzesiny Military Air Base Airport

Poland
TAF EPKS 170200Z 1703/1712 24012KT 9999 BKN030 BECMG 1708/1710 BKN015 PROB40 1707/1712 24015G25KT 5000 -RA BR BKN006 OVC013
Issued Valid From Valid To
Jan-17 @ 02:00 UTC
(4 hours ago)
Jan-17 @ 03:00 UTC
(3 hours ago)
Jan-17 @ 12:00 UTC
(in 6 hours)
Jan-17 @ 03:00 to Jan-17 @ 08:00
TAF EPKS 170200Z 1703/1712 24012KT 9999 BKN030
Wind Visibility Clouds
240° at 12 knots 10,000+ meters
  • Broken at 3,000' AGL
Probable  (Probability 40%) Jan-17 @ 07:00 to Jan-17 @ 12:00
PROB40 1707/1712 24015G25KT 5000 -RA BR BKN006 OVC013
Wind Visibility Clouds Conditions
240° at 15 knots
 Gusting to 25 knots
5,005 meters
  • Broken at 600' AGL
  • Overcast at 1,300' AGL
  • Light Rain
  • Mist
Becoming Jan-17 @ 08:00 to Jan-17 @ 12:00
BECMG 1708/1710 BKN015
Wind Visibility Clouds
240° at 12 knots 10,000+ meters
  • Broken at 1,500' AGL
TAF EPKS 170200Z 1703/1712 24012KT 9999 BKN030 BECMG 1708/1710 BKN015 PROB40 1707/1712 24015G25KT 5000 -RA BR BKN006 OVC013
Issued Jan-17 @ 02:00 UTC
(4 hours ago)
Valid From Jan-17 @ 03:00 UTC
(3 hours ago)
Valid To Jan-17 @ 12:00 UTC
(in 6 hours)
Jan-17 @ 03:00 - Jan-17 @ 08:00
Wind Visibility
240° at 12 knots 10,000+ meters
Clouds
  • Broken at 3,000' AGL
Probability 40% Probable Jan-17 @ 07:00 - Jan-17 @ 12:00
Wind Visibility
240° at 15 knots
 Gusting to 25 knots
5,005 meters
Clouds
  • Broken at 600' AGL
  • Overcast at 1,300' AGL
Conditions
  • Light Rain
  • Mist
Becoming Jan-17 @ 08:00 - Jan-17 @ 12:00
Wind Visibility
240° at 12 knots 10,000+ meters
Clouds
  • Broken at 1,500' AGL